createdAt,value
2017-09-17T00:01:26.964Z,6.93
2017-09-17T00:03:55.875Z,8.50
2017-09-17T00:06:24.039Z,6.50
2017-09-17T00:08:52.948Z,5.80
2017-09-17T00:11:21.115Z,5.00
2017-09-17T00:13:49.263Z,6.30
2017-09-17T00:16:18.192Z,5.40
2017-09-17T00:18:46.335Z,6.00
2017-09-17T00:21:15.264Z,6.10
2017-09-17T00:23:43.407Z,6.83
2017-09-17T00:26:11.545Z,7.87
2017-09-17T00:28:39.839Z,6.43
2017-09-17T00:31:08.730Z,5.53
2017-09-17T00:33:37.631Z,5.00
2017-09-17T00:36:05.809Z,6.20
2017-09-17T00:38:33.947Z,5.80
2017-09-17T00:41:02.854Z,5.40
2017-09-17T00:43:31.774Z,6.33
2017-09-17T00:45:59.915Z,5.73
2017-09-17T00:48:28.848Z,5.93
2017-09-17T00:50:56.989Z,5.10
2017-09-17T00:53:25.286Z,6.60
2017-09-17T00:55:53.431Z,4.30
2017-09-17T00:58:21.572Z,5.70
2017-09-17T01:00:50.530Z,4.73
2017-09-17T01:03:18.667Z,5.77
2017-09-17T01:05:46.931Z,6.30
2017-09-17T01:08:15.080Z,6.00
2017-09-17T01:10:43.234Z,4.87
2017-09-17T01:13:11.398Z,5.60
2017-09-17T01:15:39.567Z,4.90
2017-09-17T01:18:07.694Z,4.93
2017-09-17T01:20:35.865Z,4.20
2017-09-17T01:23:04.027Z,4.33
2017-09-17T01:25:32.950Z,3.87
2017-09-17T01:28:01.092Z,4.10
2017-09-17T01:30:30.026Z,5.23
2017-09-17T01:32:58.168Z,4.67
2017-09-17T01:35:26.297Z,4.50
2017-09-17T01:37:54.554Z,4.17
2017-09-17T01:40:22.683Z,3.70
2017-09-17T01:42:50.840Z,3.77
2017-09-17T01:45:19.776Z,4.20
2017-09-17T01:47:47.905Z,5.63
2017-09-17T01:50:16.177Z,4.37
2017-09-17T01:52:44.317Z,5.20
2017-09-17T01:55:12.459Z,4.67
2017-09-17T01:57:40.616Z,4.70
2017-09-17T02:00:08.755Z,6.00
2017-09-17T02:02:37.666Z,4.00
2017-09-17T02:05:05.855Z,4.20
2017-09-17T02:07:33.986Z,3.13
2017-09-17T02:10:02.914Z,3.90
2017-09-17T02:12:31.074Z,4.40
2017-09-17T02:14:59.219Z,3.67
2017-09-17T02:17:28.142Z,4.93
2017-09-17T02:19:56.273Z,4.27
2017-09-17T02:22:25.179Z,4.17
2017-09-17T02:24:54.098Z,4.67
2017-09-17T02:27:22.235Z,4.37
2017-09-17T02:29:51.274Z,2.90
2017-09-17T02:32:19.407Z,2.80
2017-09-17T02:34:48.307Z,3.70
2017-09-17T02:37:16.489Z,4.50
2017-09-17T02:39:44.646Z,3.00
2017-09-17T02:42:12.801Z,3.60
2017-09-17T02:44:40.965Z,3.90
2017-09-17T02:47:09.106Z,3.90
2017-09-17T02:49:37.269Z,4.10
2017-09-17T02:52:06.184Z,3.33
2017-09-17T02:54:34.344Z,3.23
2017-09-17T02:57:02.509Z,3.37
2017-09-17T02:59:30.660Z,3.10
2017-09-17T03:01:58.803Z,2.97
2017-09-17T03:04:27.077Z,3.80
2017-09-17T03:06:55.224Z,3.50
2017-09-17T03:09:23.368Z,2.60
2017-09-17T03:11:51.519Z,3.20
2017-09-17T03:14:19.694Z,3.43
2017-09-17T03:16:47.965Z,3.80
2017-09-17T03:19:16.105Z,3.03
2017-09-17T03:21:44.255Z,2.33
2017-09-17T03:24:12.415Z,3.33
2017-09-17T03:26:40.560Z,2.87
2017-09-17T03:29:08.722Z,4.00
2017-09-17T03:31:36.854Z,3.37
2017-09-17T03:34:05.770Z,3.90
2017-09-17T03:36:33.906Z,2.83
2017-09-17T03:39:02.850Z,3.20
2017-09-17T03:41:30.994Z,4.00
2017-09-17T03:43:59.330Z,2.67
2017-09-17T03:46:27.492Z,2.77
2017-09-17T03:48:55.636Z,3.00
2017-09-17T03:51:23.794Z,3.40
2017-09-17T03:53:51.937Z,3.07
2017-09-17T03:56:20.856Z,2.13
2017-09-17T03:58:49.022Z,2.73
2017-09-17T04:01:17.156Z,3.80
2017-09-17T04:03:45.287Z,2.70
2017-09-17T04:06:13.566Z,2.47
2017-09-17T04:08:41.691Z,3.10
2017-09-17T04:11:10.581Z,2.30
2017-09-17T04:13:39.513Z,3.03
2017-09-17T04:16:07.649Z,1.90
2017-09-17T04:18:35.811Z,2.40
2017-09-17T04:21:04.715Z,1.90
2017-09-17T04:23:32.881Z,2.73
2017-09-17T04:26:01.777Z,2.10
2017-09-17T04:28:29.922Z,1.70
2017-09-17T04:30:58.075Z,2.83
2017-09-17T04:33:26.227Z,2.00
2017-09-17T04:35:54.365Z,1.83
2017-09-17T04:38:22.518Z,2.20
2017-09-17T04:40:51.421Z,2.43
2017-09-17T04:43:19.584Z,1.90
2017-09-17T04:45:49.317Z,2.10
2017-09-17T04:48:17.467Z,2.10
2017-09-17T04:50:46.385Z,2.27
2017-09-17T04:53:14.577Z,2.37
2017-09-17T04:55:43.093Z,2.50
2017-09-17T04:58:12.011Z,2.03
2017-09-17T05:00:40.294Z,1.90
2017-09-17T05:03:08.476Z,2.37
2017-09-17T05:05:36.608Z,1.60
2017-09-17T05:08:05.539Z,1.73
2017-09-17T05:10:33.687Z,2.40
2017-09-17T05:13:01.839Z,2.30
2017-09-17T05:15:30.771Z,1.97
2017-09-17T05:17:58.927Z,2.10
2017-09-17T05:20:27.061Z,2.23
2017-09-17T05:22:55.193Z,2.17
2017-09-17T05:25:23.350Z,1.83
2017-09-17T05:27:51.515Z,2.07
2017-09-17T05:30:19.779Z,2.00
2017-09-17T05:32:47.931Z,2.97
2017-09-17T05:35:16.852Z,2.27
2017-09-17T05:37:45.031Z,2.87
2017-09-17T05:40:13.184Z,2.27
2017-09-17T05:42:41.322Z,2.10
2017-09-17T05:45:09.482Z,2.10
2017-09-17T05:47:37.949Z,1.90
2017-09-17T05:50:06.094Z,2.90
2017-09-17T05:52:34.230Z,2.10
2017-09-17T05:55:03.150Z,2.30
2017-09-17T05:57:31.319Z,2.27
2017-09-17T05:59:59.454Z,3.30
2017-09-17T06:02:27.639Z,4.43
2017-09-17T06:04:56.555Z,4.10
2017-09-17T06:07:24.701Z,2.90
2017-09-17T06:09:53.640Z,4.10
2017-09-17T06:12:21.775Z,4.50
2017-09-17T06:14:49.925Z,3.37
2017-09-17T06:17:18.961Z,4.13
2017-09-17T06:19:47.094Z,4.70
2017-09-17T06:22:16.007Z,4.53
2017-09-17T06:24:44.179Z,4.80
2017-09-17T06:27:12.340Z,3.53
2017-09-17T06:29:40.614Z,4.17
2017-09-17T06:32:09.520Z,6.43
2017-09-17T06:34:37.662Z,4.43
2017-09-17T06:37:06.700Z,5.40
2017-09-17T06:39:34.849Z,5.70
2017-09-17T06:42:03.000Z,6.50
2017-09-17T06:44:31.941Z,5.97
2017-09-17T06:47:00.078Z,5.10
2017-09-17T06:49:28.223Z,4.87
2017-09-17T06:51:57.160Z,5.90
2017-09-17T06:54:25.325Z,6.90
2017-09-17T06:56:53.467Z,6.40
2017-09-17T06:59:22.413Z,6.73
2017-09-17T07:01:50.562Z,7.30
2017-09-17T07:04:18.838Z,9.23
2017-09-17T07:06:47.005Z,6.80
2017-09-17T07:09:15.868Z,7.90
2017-09-17T07:11:44.825Z,9.50
2017-09-17T07:14:12.967Z,9.63
2017-09-17T07:16:41.125Z,8.50
2017-09-17T07:19:09.300Z,10.70
2017-09-17T07:21:37.447Z,10.73
2017-09-17T07:24:06.388Z,9.53
2017-09-17T07:26:34.560Z,10.37
2017-09-17T07:29:02.846Z,10.80
2017-09-17T07:31:31.002Z,13.03
2017-09-17T07:33:59.163Z,13.07
2017-09-17T07:36:27.345Z,11.10
2017-09-17T07:38:55.502Z,9.47
2017-09-17T07:41:23.663Z,11.37
2017-09-17T07:43:51.812Z,10.00
2017-09-17T07:46:20.860Z,11.77
2017-09-17T07:48:49.010Z,14.43
2017-09-17T07:51:17.164Z,13.43
2017-09-17T07:53:45.334Z,14.13
2017-09-17T07:56:13.492Z,13.03
2017-09-17T07:58:43.377Z,12.10
2017-09-17T08:01:11.539Z,14.13
2017-09-17T08:03:39.683Z,13.03
2017-09-17T08:06:07.978Z,13.00
2017-09-17T08:08:36.134Z,12.07
2017-09-17T08:11:04.613Z,13.40
2017-09-17T08:13:32.785Z,13.63
2017-09-17T08:16:01.549Z,15.60
2017-09-17T08:18:30.621Z,11.97
2017-09-17T08:20:59.569Z,12.20
2017-09-17T08:23:27.727Z,14.80
2017-09-17T08:25:55.930Z,13.43
2017-09-17T08:28:24.875Z,13.60
2017-09-17T08:30:53.040Z,13.63
2017-09-17T08:33:21.243Z,15.37
2017-09-17T08:35:49.457Z,9.70
2017-09-17T08:38:18.388Z,13.00
2017-09-17T08:40:46.660Z,10.50
2017-09-17T08:43:14.823Z,11.70
2017-09-17T08:45:42.965Z,13.23
2017-09-17T08:48:11.143Z,11.73
2017-09-17T08:50:40.038Z,12.13
2017-09-17T08:53:08.976Z,9.73
2017-09-17T08:55:37.133Z,11.60
2017-09-17T08:58:05.277Z,10.23
2017-09-17T09:00:33.453Z,9.93
2017-09-17T09:03:01.612Z,10.77
2017-09-17T09:05:30.528Z,9.80
2017-09-17T09:07:59.282Z,9.73
2017-09-17T09:10:28.187Z,9.90
2017-09-17T09:12:56.462Z,9.33
2017-09-17T09:15:24.607Z,9.50
2017-09-17T09:17:52.768Z,7.97
2017-09-17T09:20:20.931Z,10.80
2017-09-17T09:22:49.070Z,7.40
2017-09-17T09:25:17.355Z,6.73
2017-09-17T09:27:45.504Z,10.40
2017-09-17T09:30:13.652Z,7.57
2017-09-17T09:32:42.681Z,7.87
2017-09-17T09:35:11.634Z,7.10
2017-09-17T09:37:40.557Z,8.30
2017-09-17T09:40:08.726Z,6.67
2017-09-17T09:42:36.875Z,7.13
2017-09-17T09:45:05.052Z,6.27
2017-09-17T09:47:33.198Z,6.17
2017-09-17T09:50:01.394Z,6.03
2017-09-17T09:52:30.305Z,6.70
2017-09-17T09:54:58.460Z,5.50
2017-09-17T09:57:26.636Z,4.63
2017-09-17T09:59:54.783Z,5.40
2017-09-17T10:02:23.699Z,5.07
2017-09-17T10:04:51.960Z,5.90
2017-09-17T10:07:20.862Z,7.00
2017-09-17T10:09:49.008Z,6.37
2017-09-17T10:12:17.949Z,4.30
2017-09-17T10:14:46.112Z,4.33
2017-09-17T10:17:14.393Z,3.97
2017-09-17T10:19:42.540Z,4.33
2017-09-17T10:22:10.681Z,3.17
2017-09-17T10:24:39.725Z,3.37
2017-09-17T10:27:08.772Z,3.00
2017-09-17T10:29:37.677Z,3.40
2017-09-17T10:32:05.947Z,3.20
2017-09-17T10:34:34.860Z,4.03
2017-09-17T10:37:03.013Z,2.77
2017-09-17T10:39:31.956Z,3.97
2017-09-17T10:42:00.103Z,3.33
2017-09-17T10:44:28.272Z,3.20
2017-09-17T10:46:56.424Z,2.47
2017-09-17T10:49:24.590Z,2.73
2017-09-17T10:51:52.772Z,2.53
2017-09-17T10:54:20.926Z,2.60
2017-09-17T10:56:49.105Z,1.90
2017-09-17T10:59:18.007Z,2.90
2017-09-17T11:01:46.159Z,2.20
2017-09-17T11:04:15.180Z,2.23
2017-09-17T11:06:43.330Z,2.43
2017-09-17T11:09:12.247Z,1.50
2017-09-17T11:11:40.429Z,2.90
2017-09-17T11:14:08.586Z,1.50
2017-09-17T11:16:36.725Z,1.50
2017-09-17T11:19:05.754Z,2.07
2017-09-17T11:21:33.888Z,1.63
2017-09-17T11:24:02.781Z,1.93
2017-09-17T11:26:31.714Z,1.63
2017-09-17T11:28:59.842Z,1.37
2017-09-17T11:31:28.759Z,1.60
2017-09-17T11:33:56.923Z,1.50
2017-09-17T11:36:25.061Z,2.50
2017-09-17T11:38:54.103Z,1.27
2017-09-17T11:41:22.278Z,1.90
2017-09-17T11:43:50.420Z,1.60
2017-09-17T11:46:28.516Z,1.53
2017-09-17T11:48:56.661Z,1.70
2017-09-17T11:51:25.097Z,1.63
2017-09-17T11:53:53.246Z,1.63
2017-09-17T11:56:21.389Z,2.17
2017-09-17T11:58:50.650Z,1.83
2017-09-17T12:01:18.794Z,1.60
2017-09-17T12:03:46.955Z,1.80
2017-09-17T12:06:15.118Z,1.40
2017-09-17T12:08:44.156Z,1.60
2017-09-17T12:11:12.283Z,2.33
2017-09-17T12:13:40.445Z,1.20
2017-09-17T12:16:09.379Z,1.00
2017-09-17T12:18:37.527Z,1.27
2017-09-17T12:21:05.786Z,1.83
2017-09-17T12:23:34.693Z,1.17
2017-09-17T12:26:02.833Z,1.40
2017-09-17T12:28:31.020Z,1.10
2017-09-17T12:30:59.948Z,1.47
2017-09-17T12:33:28.992Z,1.73
2017-09-17T12:35:57.164Z,1.20
2017-09-17T12:38:26.069Z,1.30
2017-09-17T12:40:55.102Z,1.20
2017-09-17T12:43:23.249Z,1.30
2017-09-17T12:45:51.403Z,1.33
2017-09-17T12:48:20.337Z,1.57
2017-09-17T12:50:48.500Z,2.00
2017-09-17T12:53:16.630Z,1.40
2017-09-17T12:55:45.604Z,1.20
2017-09-17T12:58:13.747Z,1.30
2017-09-17T13:00:41.915Z,1.10
2017-09-17T13:03:10.075Z,2.10
2017-09-17T13:05:38.244Z,1.37
2017-09-17T13:08:06.431Z,1.70
2017-09-17T13:10:34.563Z,1.20
2017-09-17T13:13:03.490Z,1.00
2017-09-17T13:15:31.617Z,1.10
2017-09-17T13:18:00.543Z,1.20
2017-09-17T13:20:28.687Z,0.90
2017-09-17T13:22:56.822Z,1.00
2017-09-17T13:25:25.091Z,1.10
2017-09-17T13:27:53.257Z,1.20
2017-09-17T13:30:21.389Z,0.90
2017-09-17T13:32:49.566Z,1.00
2017-09-17T13:35:17.729Z,1.00
2017-09-17T13:37:45.939Z,1.20
2017-09-17T13:40:14.105Z,1.17
2017-09-17T13:42:42.254Z,1.13
2017-09-17T13:45:10.462Z,1.00
2017-09-17T13:47:38.612Z,1.17
2017-09-17T13:50:06.780Z,1.00
2017-09-17T13:52:35.447Z,1.13
2017-09-17T13:55:03.581Z,1.07
2017-09-17T13:57:32.521Z,1.23
2017-09-17T14:00:03.152Z,1.20
2017-09-17T14:02:36.833Z,1.40
2017-09-17T14:05:10.557Z,1.40
2017-09-17T14:10:47.382Z,1.40
2017-09-17T14:13:15.672Z,1.73
2017-09-17T14:15:43.821Z,1.20
2017-09-17T14:18:11.979Z,1.13
2017-09-17T14:20:40.138Z,1.10
2017-09-17T14:23:08.271Z,1.30
2017-09-17T14:25:37.249Z,1.20
2017-09-17T14:28:05.383Z,1.00
2017-09-17T14:30:33.581Z,1.10
2017-09-17T14:33:01.715Z,0.97
2017-09-17T14:35:29.876Z,1.20
2017-09-17T14:37:58.043Z,1.30
2017-09-17T14:40:26.181Z,1.20
2017-09-17T14:42:54.356Z,1.30
2017-09-17T14:45:22.694Z,1.30
2017-09-17T14:47:50.836Z,1.90
2017-09-17T14:50:19.019Z,1.43
2017-09-17T14:52:47.150Z,1.20
2017-09-17T14:55:16.090Z,1.23
2017-09-17T14:57:44.365Z,1.10
2017-09-17T15:00:12.503Z,1.10
2017-09-17T15:02:40.666Z,1.10
2017-09-17T15:05:09.604Z,1.40
2017-09-17T15:07:37.743Z,1.10
2017-09-17T15:10:05.881Z,1.03
2017-09-17T15:12:34.145Z,1.23
2017-09-17T15:15:02.296Z,1.00
2017-09-17T15:17:30.510Z,0.90
2017-09-17T15:19:59.473Z,1.03
2017-09-17T15:22:27.614Z,1.27
2017-09-17T15:24:55.810Z,1.20
2017-09-17T15:27:23.950Z,0.90
2017-09-17T15:29:52.085Z,1.10
2017-09-17T15:32:21.850Z,1.00
2017-09-17T15:34:49.986Z,1.00
2017-09-17T15:37:18.123Z,1.00
2017-09-17T15:39:46.304Z,1.00
2017-09-17T15:42:15.223Z,1.27
2017-09-17T15:44:43.411Z,0.90
2017-09-17T15:47:11.555Z,0.87
2017-09-17T15:49:40.477Z,0.83
2017-09-17T15:52:08.638Z,0.90
2017-09-17T15:54:36.798Z,0.90
2017-09-17T15:57:05.073Z,1.00
2017-09-17T15:59:33.342Z,0.83
2017-09-17T16:02:01.544Z,0.90
2017-09-17T16:04:29.881Z,1.10
2017-09-17T16:06:58.820Z,1.70
2017-09-17T16:09:26.977Z,1.30
2017-09-17T16:11:55.171Z,1.50
2017-09-17T16:14:23.323Z,0.97
2017-09-17T16:16:51.467Z,1.07
2017-09-17T16:19:20.396Z,1.00
2017-09-17T16:21:49.311Z,1.23
2017-09-17T16:24:17.482Z,0.93
2017-09-17T16:26:45.623Z,1.10
2017-09-17T16:29:13.825Z,1.47
2017-09-17T16:31:42.004Z,1.40
2017-09-17T16:34:10.149Z,1.60
2017-09-17T16:36:38.299Z,1.07
2017-09-17T16:39:06.493Z,1.50
2017-09-17T16:41:34.678Z,1.47
2017-09-17T16:44:02.841Z,2.10
2017-09-17T16:46:31.058Z,1.27
2017-09-17T16:49:00.190Z,1.13
2017-09-17T16:51:28.327Z,1.47
2017-09-17T16:53:57.254Z,1.70
2017-09-17T16:56:25.444Z,1.37
2017-09-17T16:58:53.583Z,1.70
2017-09-17T17:01:21.715Z,1.60
2017-09-17T17:03:49.880Z,1.70
2017-09-17T17:06:18.022Z,1.43
2017-09-17T17:08:46.183Z,1.37
2017-09-17T17:11:14.329Z,2.10
2017-09-17T17:13:42.512Z,1.50
2017-09-17T17:16:10.976Z,2.00
2017-09-17T17:18:39.127Z,1.40
2017-09-17T17:21:08.063Z,1.90
2017-09-17T17:23:36.277Z,1.80
2017-09-17T17:26:04.414Z,2.20
2017-09-17T17:28:32.579Z,2.50
2017-09-17T17:31:00.725Z,1.80
2017-09-17T17:33:28.912Z,1.77
2017-09-17T17:35:57.039Z,2.53
2017-09-17T17:38:25.319Z,3.00
2017-09-17T17:40:54.236Z,2.10
2017-09-17T17:43:22.383Z,1.67
2017-09-17T17:45:50.806Z,2.03
2017-09-17T17:48:19.009Z,1.93
2017-09-17T17:50:48.332Z,1.73
2017-09-17T17:53:17.356Z,1.50
2017-09-17T17:55:45.838Z,2.00
2017-09-17T17:58:14.179Z,1.60
2017-09-17T18:00:43.631Z,1.43
2017-09-17T18:03:12.368Z,2.23
2017-09-17T18:05:41.152Z,1.30
2017-09-17T18:08:09.782Z,1.40
2017-09-17T18:10:38.637Z,1.80
2017-09-17T18:13:07.205Z,1.73
2017-09-17T18:15:36.203Z,1.50
2017-09-17T18:18:04.804Z,1.90
2017-09-17T18:20:33.329Z,1.70
2017-09-17T18:23:02.050Z,2.13
2017-09-17T18:25:30.932Z,2.67
2017-09-17T18:28:01.102Z,2.53
2017-09-17T18:30:30.188Z,7.70
2017-09-17T18:33:00.313Z,4.07
2017-09-17T18:35:29.233Z,4.17
2017-09-17T18:37:58.845Z,3.47
2017-09-17T18:40:28.003Z,5.30
2017-09-17T18:42:58.124Z,4.40
2017-09-17T18:45:27.500Z,5.10
2017-09-17T18:47:57.715Z,9.13
2017-09-17T18:50:32.576Z,15.67
2017-09-17T18:53:01.938Z,18.40
2017-09-17T18:55:32.468Z,13.47
2017-09-17T18:58:02.411Z,10.77
2017-09-17T19:00:32.021Z,10.20
2017-09-17T19:03:01.330Z,9.10
2017-09-17T19:05:31.694Z,7.60
2017-09-17T19:08:01.021Z,5.43
2017-09-17T19:10:31.238Z,6.07
2017-09-17T19:13:02.324Z,7.97
2017-09-17T19:15:31.888Z,4.27
2017-09-17T19:18:02.104Z,4.53
2017-09-17T19:20:32.407Z,3.63
2017-09-17T19:23:01.963Z,3.17
2017-09-17T19:25:31.297Z,2.37
2017-09-17T19:28:00.925Z,2.07
2017-09-17T19:30:31.924Z,2.30
2017-09-17T19:33:01.400Z,2.37
2017-09-17T19:35:30.794Z,2.33
2017-09-17T19:38:00.999Z,2.43
2017-09-17T19:40:31.207Z,2.17
2017-09-17T19:43:01.568Z,2.20
2017-09-17T19:45:30.886Z,2.23
2017-09-17T19:48:00.218Z,2.37
2017-09-17T19:50:29.763Z,2.33
2017-09-17T19:52:59.059Z,2.70
2017-09-17T19:55:28.369Z,2.20
2017-09-17T19:57:58.044Z,3.10
2017-09-17T20:00:29.006Z,2.40
2017-09-17T20:02:58.425Z,3.47
2017-09-17T20:05:27.734Z,2.10
2017-09-17T20:07:57.041Z,2.60
2017-09-17T20:10:26.418Z,1.97
2017-09-17T20:12:55.716Z,2.50
2017-09-17T20:15:25.205Z,2.97
2017-09-17T20:17:54.430Z,1.63
2017-09-17T20:20:23.663Z,2.43
2017-09-17T20:22:52.999Z,2.27
2017-09-17T20:25:22.400Z,1.60
2017-09-17T20:27:51.532Z,2.63
2017-09-17T20:30:20.562Z,1.93
2017-09-17T20:32:49.373Z,1.57
2017-09-17T20:35:18.066Z,2.97
2017-09-17T20:37:46.558Z,2.03
2017-09-17T20:40:14.865Z,2.63
2017-09-17T20:42:43.086Z,2.60
2017-09-17T20:45:11.226Z,2.00
2017-09-17T20:47:40.197Z,2.13
2017-09-17T20:50:08.336Z,3.10
2017-09-17T20:52:36.502Z,2.43
2017-09-17T20:55:04.700Z,2.50
2017-09-17T20:57:32.858Z,2.20
2017-09-17T21:00:01.506Z,2.90
2017-09-17T21:02:29.650Z,2.40
2017-09-17T21:04:57.845Z,2.60
2017-09-17T21:07:26.820Z,2.50
2017-09-17T21:09:55.001Z,2.43
2017-09-17T21:12:23.197Z,2.13
2017-09-17T21:14:51.334Z,2.60
2017-09-17T21:17:20.302Z,2.60
2017-09-17T21:19:48.593Z,1.60
2017-09-17T21:22:17.638Z,1.80
2017-09-17T21:24:45.791Z,1.97
2017-09-17T21:27:13.917Z,1.70
2017-09-17T21:29:42.119Z,1.27
2017-09-17T21:32:10.254Z,2.00
2017-09-17T21:34:38.428Z,2.23
2017-09-17T21:37:06.573Z,2.20
2017-09-17T21:39:34.723Z,2.37
2017-09-17T21:42:02.877Z,2.17
2017-09-17T21:44:31.280Z,1.70
2017-09-17T21:46:59.529Z,1.73
2017-09-17T21:49:27.670Z,2.40
2017-09-17T21:51:56.580Z,2.40
2017-09-17T21:54:25.511Z,2.53
2017-09-17T21:56:53.660Z,2.60
2017-09-17T21:59:21.828Z,2.60
2017-09-17T22:01:50.225Z,1.90
2017-09-17T22:04:18.395Z,2.00
2017-09-17T22:06:46.536Z,2.13
2017-09-17T22:09:15.441Z,2.30
2017-09-17T22:11:43.644Z,2.10
2017-09-17T22:14:11.782Z,2.13
2017-09-17T22:16:39.930Z,2.03
2017-09-17T22:19:08.827Z,2.33
2017-09-17T22:21:37.718Z,1.63
2017-09-17T22:24:06.664Z,2.10
2017-09-17T22:26:34.824Z,1.83
2017-09-17T22:29:02.995Z,1.83
2017-09-17T22:31:31.167Z,2.37
2017-09-17T22:33:59.340Z,1.90
2017-09-17T22:36:27.473Z,2.23
2017-09-17T22:38:55.641Z,2.10
2017-09-17T22:41:23.791Z,2.10
2017-09-17T22:43:51.931Z,1.97
2017-09-17T22:46:21.743Z,2.17
2017-09-17T22:48:49.874Z,2.13
2017-09-17T22:51:18.121Z,2.50
2017-09-17T22:53:47.030Z,2.20
2017-09-17T22:56:15.158Z,1.80
2017-09-17T22:58:43.318Z,1.70
2017-09-17T23:01:11.460Z,1.90
2017-09-17T23:03:39.724Z,2.17
2017-09-17T23:06:07.922Z,2.20
2017-09-17T23:08:36.064Z,1.50
2017-09-17T23:11:04.225Z,1.80
2017-09-17T23:13:33.119Z,1.73
2017-09-17T23:16:02.142Z,1.70
2017-09-17T23:18:30.287Z,1.60
2017-09-17T23:20:58.421Z,1.47
2017-09-17T23:23:26.627Z,1.77
2017-09-17T23:25:55.528Z,1.60
2017-09-17T23:28:23.803Z,1.40
2017-09-17T23:30:51.943Z,1.60
2017-09-17T23:33:20.088Z,1.53
2017-09-17T23:35:48.434Z,1.77
2017-09-17T23:38:16.666Z,1.67
2017-09-17T23:40:44.941Z,1.90
2017-09-17T23:43:13.078Z,1.40
2017-09-17T23:45:41.215Z,1.60
2017-09-17T23:48:09.359Z,1.47
2017-09-17T23:50:38.270Z,1.60
2017-09-17T23:53:06.444Z,1.30
2017-09-17T23:55:34.592Z,2.10
2017-09-17T23:58:03.477Z,1.80
